sensor_id;sensor_type;location;lat;lon;timestamp;pressure;altitude;pressure_sealevel;temperature;humidity
74336;BME280;62755;-33.398;-70.572;2023-09-30T00:01:55;92826.91;;;22.56;42.60
74336;BME280;62755;-33.398;-70.572;2023-09-30T00:04:27;92829.34;;;22.32;43.37
74336;BME280;62755;-33.398;-70.572;2023-09-30T00:06:57;92831.69;;;22.03;43.96
74336;BME280;62755;-33.398;-70.572;2023-09-30T00:09:26;92846.38;;;22.05;44.23
74336;BME280;62755;-33.398;-70.572;2023-09-30T00:11:55;92847.06;;;22.00;44.17
74336;BME280;62755;-33.398;-70.572;2023-09-30T00:14:25;92846.38;;;22.05;43.86
74336;BME280;62755;-33.398;-70.572;2023-09-30T00:16:55;92835.88;;;21.98;44.25
74336;BME280;62755;-33.398;-70.572;2023-09-30T00:19:27;92838.56;;;21.87;44.38
74336;BME280;62755;-33.398;-70.572;2023-09-30T00:21:56;92842.59;;;21.97;44.36
74336;BME280;62755;-33.398;-70.572;2023-09-30T00:24:25;92839.34;;;21.93;44.50
74336;BME280;62755;-33.398;-70.572;2023-09-30T00:26:55;92838.84;;;21.89;44.50
74336;BME280;62755;-33.398;-70.572;2023-09-30T00:29:24;92835.88;;;21.98;43.96
74336;BME280;62755;-33.398;-70.572;2023-09-30T00:31:54;92845.09;;;22.01;43.64
74336;BME280;62755;-33.398;-70.572;2023-09-30T00:34:23;92848.31;;;21.99;43.61
74336;BME280;62755;-33.398;-70.572;2023-09-30T00:36:54;92850.78;;;21.97;43.70
74336;BME280;62755;-33.398;-70.572;2023-09-30T00:39:24;92852.25;;;21.93;43.71
74336;BME280;62755;-33.398;-70.572;2023-09-30T00:41:57;92851.75;;;21.94;43.66
74336;BME280;62755;-33.398;-70.572;2023-09-30T00:44:27;92843.31;;;21.92;43.65
74336;BME280;62755;-33.398;-70.572;2023-09-30T00:46:57;92838.06;;;21.83;44.05
74336;BME280;62755;-33.398;-70.572;2023-09-30T00:49:26;92846.50;;;21.85;43.57
74336;BME280;62755;-33.398;-70.572;2023-09-30T00:51:58;92843.59;;;22.00;43.43
74336;BME280;62755;-33.398;-70.572;2023-09-30T00:54:30;92842.75;;;21.82;42.90
74336;BME280;62755;-33.398;-70.572;2023-09-30T00:57:00;92844.66;;;21.71;43.16
74336;BME280;62755;-33.398;-70.572;2023-09-30T00:59:31;92844.50;;;21.49;43.40
74336;BME280;62755;-33.398;-70.572;2023-09-30T01:02:02;92841.25;;;21.45;43.68
74336;BME280;62755;-33.398;-70.572;2023-09-30T01:04:32;92849.41;;;21.39;44.27
74336;BME280;62755;-33.398;-70.572;2023-09-30T01:07:06;92838.72;;;21.36;43.98
74336;BME280;62755;-33.398;-70.572;2023-09-30T01:09:35;92847.44;;;21.40;43.74
74336;BME280;62755;-33.398;-70.572;2023-09-30T01:12:06;92846.38;;;21.32;43.82
74336;BME280;62755;-33.398;-70.572;2023-09-30T01:14:36;92834.13;;;21.22;43.57
74336;BME280;62755;-33.398;-70.572;2023-09-30T01:17:07;92837.16;;;21.29;43.82
74336;BME280;62755;-33.398;-70.572;2023-09-30T01:19:40;92843.91;;;21.34;43.72
74336;BME280;62755;-33.398;-70.572;2023-09-30T01:22:12;92848.13;;;21.35;43.50
74336;BME280;62755;-33.398;-70.572;2023-09-30T01:24:42;92834.19;;;21.27;43.35
74336;BME280;62755;-33.398;-70.572;2023-09-30T01:27:14;92846.06;;;21.24;43.46
74336;BME280;62755;-33.398;-70.572;2023-09-30T01:29:45;92842.78;;;21.15;43.60
74336;BME280;62755;-33.398;-70.572;2023-09-30T01:32:15;92842.94;;;21.06;43.83
74336;BME280;62755;-33.398;-70.572;2023-09-30T01:34:45;92837.22;;;21.04;43.97
74336;BME280;62755;-33.398;-70.572;2023-09-30T01:37:16;92839.88;;;20.98;44.08
74336;BME280;62755;-33.398;-70.572;2023-09-30T01:39:45;92830.69;;;20.70;44.47
74336;BME280;62755;-33.398;-70.572;2023-09-30T01:42:17;92839.97;;;20.83;44.53
74336;BME280;62755;-33.398;-70.572;2023-09-30T01:44:47;92841.97;;;20.83;44.11
74336;BME280;62755;-33.398;-70.572;2023-09-30T01:47:16;92832.81;;;20.86;44.08
74336;BME280;62755;-33.398;-70.572;2023-09-30T01:49:46;92834.97;;;20.76;44.24
74336;BME280;62755;-33.398;-70.572;2023-09-30T01:52:17;92830.09;;;20.86;44.13
74336;BME280;62755;-33.398;-70.572;2023-09-30T01:54:46;92834.88;;;20.65;44.21
74336;BME280;62755;-33.398;-70.572;2023-09-30T01:57:15;92837.97;;;20.78;43.58
74336;BME280;62755;-33.398;-70.572;2023-09-30T01:59:45;92832.00;;;20.54;44.15
74336;BME280;62755;-33.398;-70.572;2023-09-30T02:02:14;92828.69;;;20.45;44.17
74336;BME280;62755;-33.398;-70.572;2023-09-30T02:04:44;92821.91;;;20.60;43.76
74336;BME280;62755;-33.398;-70.572;2023-09-30T02:07:15;92826.53;;;20.74;43.55
74336;BME280;62755;-33.398;-70.572;2023-09-30T02:09:45;92830.91;;;20.66;43.66
74336;BME280;62755;-33.398;-70.572;2023-09-30T02:12:14;92832.41;;;20.67;43.55
74336;BME280;62755;-33.398;-70.572;2023-09-30T02:14:44;92820.31;;;20.48;43.94
74336;BME280;62755;-33.398;-70.572;2023-09-30T02:17:14;92824.81;;;20.51;43.93
74336;BME280;62755;-33.398;-70.572;2023-09-30T02:19:43;92821.13;;;20.54;43.89
74336;BME280;62755;-33.398;-70.572;2023-09-30T02:22:12;92829.03;;;20.52;43.91
74336;BME280;62755;-33.398;-70.572;2023-09-30T02:24:44;92828.31;;;20.32;43.95
74336;BME280;62755;-33.398;-70.572;2023-09-30T02:27:13;92799.16;;;20.17;44.09
74336;BME280;62755;-33.398;-70.572;2023-09-30T02:29:42;92820.44;;;20.59;43.89
74336;BME280;62755;-33.398;-70.572;2023-09-30T02:32:12;92828.44;;;20.68;43.77
74336;BME280;62755;-33.398;-70.572;2023-09-30T02:34:42;92829.50;;;20.51;44.34
74336;BME280;62755;-33.398;-70.572;2023-09-30T02:37:11;92824.69;;;20.66;43.88
74336;BME280;62755;-33.398;-70.572;2023-09-30T02:39:42;92832.94;;;20.71;44.00
74336;BME280;62755;-33.398;-70.572;2023-09-30T02:42:12;92825.03;;;20.48;44.50
74336;BME280;62755;-33.398;-70.572;2023-09-30T02:44:42;92827.16;;;20.38;44.13
74336;BME280;62755;-33.398;-70.572;2023-09-30T02:47:12;92822.38;;;20.13;44.21
74336;BME280;62755;-33.398;-70.572;2023-09-30T02:49:41;92830.31;;;19.91;44.82
74336;BME280;62755;-33.398;-70.572;2023-09-30T02:52:11;92833.13;;;19.82;45.37
74336;BME280;62755;-33.398;-70.572;2023-09-30T02:54:42;92830.97;;;20.06;44.81
74336;BME280;62755;-33.398;-70.572;2023-09-30T02:57:11;92828.38;;;19.77;45.41
74336;BME280;62755;-33.398;-70.572;2023-09-30T02:59:41;92837.06;;;19.61;45.77
74336;BME280;62755;-33.398;-70.572;2023-09-30T03:02:11;92824.09;;;19.70;45.77
74336;BME280;62755;-33.398;-70.572;2023-09-30T03:04:40;92831.72;;;19.86;45.46
74336;BME280;62755;-33.398;-70.572;2023-09-30T03:07:10;92821.97;;;19.80;45.78
74336;BME280;62755;-33.398;-70.572;2023-09-30T03:09:42;92836.75;;;19.93;45.58
74336;BME280;62755;-33.398;-70.572;2023-09-30T03:12:12;92829.66;;;19.81;45.37
74336;BME280;62755;-33.398;-70.572;2023-09-30T03:14:42;92835.81;;;19.42;45.98
74336;BME280;62755;-33.398;-70.572;2023-09-30T03:17:12;92835.97;;;19.38;46.11
74336;BME280;62755;-33.398;-70.572;2023-09-30T03:19:41;92834.31;;;19.41;46.65
74336;BME280;62755;-33.398;-70.572;2023-09-30T03:22:10;92834.38;;;19.81;46.69
74336;BME280;62755;-33.398;-70.572;2023-09-30T03:24:40;92832.25;;;19.70;46.14
74336;BME280;62755;-33.398;-70.572;2023-09-30T03:27:11;92835.03;;;19.76;46.00
74336;BME280;62755;-33.398;-70.572;2023-09-30T03:29:41;92838.38;;;19.65;45.63
74336;BME280;62755;-33.398;-70.572;2023-09-30T03:32:11;92833.50;;;19.55;46.11
74336;BME280;62755;-33.398;-70.572;2023-09-30T03:34:41;92835.56;;;19.60;45.92
74336;BME280;62755;-33.398;-70.572;2023-09-30T03:37:13;92829.56;;;19.56;45.96
74336;BME280;62755;-33.398;-70.572;2023-09-30T03:39:42;92826.72;;;19.65;45.81
74336;BME280;62755;-33.398;-70.572;2023-09-30T03:42:17;92827.28;;;19.69;45.76
74336;BME280;62755;-33.398;-70.572;2023-09-30T03:44:47;92824.53;;;19.49;46.07
74336;BME280;62755;-33.398;-70.572;2023-09-30T03:47:17;92826.22;;;19.46;46.06
74336;BME280;62755;-33.398;-70.572;2023-09-30T03:49:46;92817.72;;;19.39;45.98
74336;BME280;62755;-33.398;-70.572;2023-09-30T03:52:15;92819.44;;;19.56;45.62
74336;BME280;62755;-33.398;-70.572;2023-09-30T03:54:45;92818.16;;;19.52;45.47
74336;BME280;62755;-33.398;-70.572;2023-09-30T03:57:18;92808.97;;;19.49;45.84
74336;BME280;62755;-33.398;-70.572;2023-09-30T03:59:47;92808.41;;;19.45;46.26
74336;BME280;62755;-33.398;-70.572;2023-09-30T04:02:17;92819.28;;;19.45;46.16
74336;BME280;62755;-33.398;-70.572;2023-09-30T04:04:46;92812.38;;;19.29;46.14
74336;BME280;62755;-33.398;-70.572;2023-09-30T04:07:17;92815.00;;;19.39;45.54
74336;BME280;62755;-33.398;-70.572;2023-09-30T04:09:48;92812.28;;;19.39;45.12
74336;BME280;62755;-33.398;-70.572;2023-09-30T04:12:19;92810.41;;;19.30;45.20
74336;BME280;62755;-33.398;-70.572;2023-09-30T04:14:48;92805.41;;;19.28;45.36
74336;BME280;62755;-33.398;-70.572;2023-09-30T04:17:18;92804.22;;;19.29;45.27
74336;BME280;62755;-33.398;-70.572;2023-09-30T04:19:50;92806.56;;;19.37;45.19
74336;BME280;62755;-33.398;-70.572;2023-09-30T04:22:19;92801.50;;;19.29;45.66
74336;BME280;62755;-33.398;-70.572;2023-09-30T04:24:51;92811.25;;;19.21;45.62
74336;BME280;62755;-33.398;-70.572;2023-09-30T04:27:22;92808.13;;;18.94;46.28
74336;BME280;62755;-33.398;-70.572;2023-09-30T04:29:52;92804.84;;;19.04;46.06
74336;BME280;62755;-33.398;-70.572;2023-09-30T04:32:21;92802.50;;;19.47;45.68
74336;BME280;62755;-33.398;-70.572;2023-09-30T04:34:52;92806.84;;;19.39;45.77
74336;BME280;62755;-33.398;-70.572;2023-09-30T04:37:22;92813.31;;;19.41;45.48
74336;BME280;62755;-33.398;-70.572;2023-09-30T04:39:51;92807.41;;;19.63;44.65
74336;BME280;62755;-33.398;-70.572;2023-09-30T04:42:22;92807.66;;;19.45;45.15
74336;BME280;62755;-33.398;-70.572;2023-09-30T04:44:52;92803.75;;;19.16;45.01
74336;BME280;62755;-33.398;-70.572;2023-09-30T04:47:22;92801.56;;;19.00;45.03
74336;BME280;62755;-33.398;-70.572;2023-09-30T04:49:52;92792.56;;;18.80;45.11
74336;BME280;62755;-33.398;-70.572;2023-09-30T04:52:21;92793.50;;;18.91;44.96
74336;BME280;62755;-33.398;-70.572;2023-09-30T04:54:54;92790.31;;;18.78;45.74
74336;BME280;62755;-33.398;-70.572;2023-09-30T04:57:25;92791.66;;;18.68;46.43
74336;BME280;62755;-33.398;-70.572;2023-09-30T04:59:55;92793.13;;;18.98;46.04
74336;BME280;62755;-33.398;-70.572;2023-09-30T05:02:24;92788.25;;;19.02;46.01
74336;BME280;62755;-33.398;-70.572;2023-09-30T05:04:54;92787.69;;;18.98;45.94
74336;BME280;62755;-33.398;-70.572;2023-09-30T05:07:23;92789.00;;;18.88;46.59
74336;BME280;62755;-33.398;-70.572;2023-09-30T05:09:55;92787.84;;;18.95;46.69
74336;BME280;62755;-33.398;-70.572;2023-09-30T05:12:26;92754.47;;;18.45;48.23
74336;BME280;62755;-33.398;-70.572;2023-09-30T05:14:55;92776.53;;;18.67;47.72
74336;BME280;62755;-33.398;-70.572;2023-09-30T05:17:25;92776.19;;;18.74;46.84
74336;BME280;62755;-33.398;-70.572;2023-09-30T05:19:56;92779.38;;;18.73;45.88
74336;BME280;62755;-33.398;-70.572;2023-09-30T05:22:26;92781.44;;;18.49;44.49
74336;BME280;62755;-33.398;-70.572;2023-09-30T05:24:56;92781.53;;;18.54;42.81
74336;BME280;62755;-33.398;-70.572;2023-09-30T05:27:28;92787.91;;;18.51;43.07
74336;BME280;62755;-33.398;-70.572;2023-09-30T05:29:57;92774.00;;;18.20;44.67
74336;BME280;62755;-33.398;-70.572;2023-09-30T05:32:27;92782.19;;;18.49;44.38
74336;BME280;62755;-33.398;-70.572;2023-09-30T05:34:56;92781.44;;;18.49;44.88
74336;BME280;62755;-33.398;-70.572;2023-09-30T05:37:26;92764.66;;;18.50;44.66
74336;BME280;62755;-33.398;-70.572;2023-09-30T05:39:55;92778.16;;;18.59;44.71
74336;BME280;62755;-33.398;-70.572;2023-09-30T05:42:26;92776.19;;;18.74;44.29
74336;BME280;62755;-33.398;-70.572;2023-09-30T05:44:57;92771.56;;;18.95;43.99
74336;BME280;62755;-33.398;-70.572;2023-09-30T05:47:26;92779.28;;;19.16;44.09
74336;BME280;62755;-33.398;-70.572;2023-09-30T05:49:55;92778.22;;;19.28;43.50
74336;BME280;62755;-33.398;-70.572;2023-09-30T05:52:25;92781.28;;;19.01;43.92
74336;BME280;62755;-33.398;-70.572;2023-09-30T05:54:55;92787.84;;;19.09;43.69
74336;BME280;62755;-33.398;-70.572;2023-09-30T05:57:24;92779.41;;;19.07;43.71
74336;BME280;62755;-33.398;-70.572;2023-09-30T05:59:55;92774.31;;;19.29;43.22
74336;BME280;62755;-33.398;-70.572;2023-09-30T06:02:25;92771.03;;;19.25;43.44
74336;BME280;62755;-33.398;-70.572;2023-09-30T06:04:54;92770.81;;;19.29;43.76
74336;BME280;62755;-33.398;-70.572;2023-09-30T06:07:24;92768.31;;;19.25;43.26
74336;BME280;62755;-33.398;-70.572;2023-09-30T06:09:54;92768.31;;;19.25;43.12
74336;BME280;62755;-33.398;-70.572;2023-09-30T06:12:23;92774.88;;;19.19;43.20
74336;BME280;62755;-33.398;-70.572;2023-09-30T06:14:54;92767.59;;;19.10;43.38
74336;BME280;62755;-33.398;-70.572;2023-09-30T06:17:24;92772.16;;;18.84;43.85
74336;BME280;62755;-33.398;-70.572;2023-09-30T06:19:53;92769.13;;;18.97;43.95
74336;BME280;62755;-33.398;-70.572;2023-09-30T06:22:22;92772.22;;;19.04;43.71
74336;BME280;62755;-33.398;-70.572;2023-09-30T06:24:52;92767.22;;;19.03;43.63
74336;BME280;62755;-33.398;-70.572;2023-09-30T06:27:21;92768.53;;;19.07;44.06
74336;BME280;62755;-33.398;-70.572;2023-09-30T06:29:51;92768.38;;;18.96;44.18
74336;BME280;62755;-33.398;-70.572;2023-09-30T06:32:22;92771.22;;;18.73;44.96
74336;BME280;62755;-33.398;-70.572;2023-09-30T06:34:52;92783.56;;;18.88;45.08
74336;BME280;62755;-33.398;-70.572;2023-09-30T06:37:21;92779.94;;;18.77;45.36
74336;BME280;62755;-33.398;-70.572;2023-09-30T06:39:51;92774.03;;;18.78;45.25
74336;BME280;62755;-33.398;-70.572;2023-09-30T06:42:20;92774.38;;;19.00;44.81
74336;BME280;62755;-33.398;-70.572;2023-09-30T06:44:49;92772.16;;;18.84;45.62
74336;BME280;62755;-33.398;-70.572;2023-09-30T06:47:21;92774.19;;;18.89;45.83
74336;BME280;62755;-33.398;-70.572;2023-09-30T06:49:51;92776.91;;;18.89;45.55
74336;BME280;62755;-33.398;-70.572;2023-09-30T06:52:20;92759.78;;;18.83;45.67
74336;BME280;62755;-33.398;-70.572;2023-09-30T06:54:49;92771.19;;;18.87;45.17
74336;BME280;62755;-33.398;-70.572;2023-09-30T06:57:19;92774.22;;;18.75;44.99
74336;BME280;62755;-33.398;-70.572;2023-09-30T06:59:48;92780.50;;;18.66;45.40
74336;BME280;62755;-33.398;-70.572;2023-09-30T07:02:18;92771.41;;;18.55;45.21
74336;BME280;62755;-33.398;-70.572;2023-09-30T07:04:49;92774.03;;;18.49;45.36
74336;BME280;62755;-33.398;-70.572;2023-09-30T07:07:18;92771.13;;;18.53;45.19
74336;BME280;62755;-33.398;-70.572;2023-09-30T07:09:47;92769.75;;;18.57;44.89
74336;BME280;62755;-33.398;-70.572;2023-09-30T07:12:17;92770.19;;;18.70;45.18
74336;BME280;62755;-33.398;-70.572;2023-09-30T07:14:47;92762.81;;;18.71;44.75
74336;BME280;62755;-33.398;-70.572;2023-09-30T07:17:16;92767.47;;;18.56;45.14
74336;BME280;62755;-33.398;-70.572;2023-09-30T07:19:48;92758.31;;;18.53;45.27
74336;BME280;62755;-33.398;-70.572;2023-09-30T07:22:17;92765.50;;;18.56;45.25
74336;BME280;62755;-33.398;-70.572;2023-09-30T07:24:46;92772.91;;;18.70;45.25
74336;BME280;62755;-33.398;-70.572;2023-09-30T07:27:16;92763.81;;;18.73;44.62
74336;BME280;62755;-33.398;-70.572;2023-09-30T07:29:46;92771.78;;;18.62;44.44
74336;BME280;62755;-33.398;-70.572;2023-09-30T07:32:15;92767.13;;;18.63;44.20
74336;BME280;62755;-33.398;-70.572;2023-09-30T07:34:45;92766.13;;;18.36;43.86
74336;BME280;62755;-33.398;-70.572;2023-09-30T07:37:16;92764.09;;;18.46;44.04
74336;BME280;62755;-33.398;-70.572;2023-09-30T07:39:47;92768.94;;;18.42;44.90
74336;BME280;62755;-33.398;-70.572;2023-09-30T07:42:16;92769.31;;;18.20;44.95
74336;BME280;62755;-33.398;-70.572;2023-09-30T07:44:46;92761.22;;;17.97;44.24
74336;BME280;62755;-33.398;-70.572;2023-09-30T07:47:15;92760.81;;;17.75;44.63
74336;BME280;62755;-33.398;-70.572;2023-09-30T07:49:45;92772.78;;;17.83;44.95
74336;BME280;62755;-33.398;-70.572;2023-09-30T07:52:16;92774.50;;;17.95;45.27
74336;BME280;62755;-33.398;-70.572;2023-09-30T07:54:46;92769.66;;;17.99;45.34
74336;BME280;62755;-33.398;-70.572;2023-09-30T07:57:15;92776.78;;;18.11;45.22
74336;BME280;62755;-33.398;-70.572;2023-09-30T07:59:45;92770.44;;;18.14;44.67
74336;BME280;62755;-33.398;-70.572;2023-09-30T08:02:14;92778.66;;;18.05;44.37
74336;BME280;62755;-33.398;-70.572;2023-09-30T08:04:44;92778.44;;;17.94;44.91
74336;BME280;62755;-33.398;-70.572;2023-09-30T08:07:16;92783.31;;;17.90;44.87
74336;BME280;62755;-33.398;-70.572;2023-09-30T08:09:45;92784.00;;;17.76;44.66
74336;BME280;62755;-33.398;-70.572;2023-09-30T08:12:16;92780.88;;;17.92;43.77
74336;BME280;62755;-33.398;-70.572;2023-09-30T08:14:46;92786.69;;;17.99;43.51
74336;BME280;62755;-33.398;-70.572;2023-09-30T08:17:15;92791.59;;;18.10;43.82
74336;BME280;62755;-33.398;-70.572;2023-09-30T08:19:46;92781.06;;;18.03;43.85
74336;BME280;62755;-33.398;-70.572;2023-09-30T08:22:17;92789.03;;;18.06;44.52
74336;BME280;62755;-33.398;-70.572;2023-09-30T08:24:46;92793.34;;;18.13;43.28
74336;BME280;62755;-33.398;-70.572;2023-09-30T08:27:16;92794.53;;;17.97;43.37
74336;BME280;62755;-33.398;-70.572;2023-09-30T08:29:45;92796.28;;;17.86;43.35
74336;BME280;62755;-33.398;-70.572;2023-09-30T08:32:15;92785.47;;;17.62;43.51
74336;BME280;62755;-33.398;-70.572;2023-09-30T08:34:44;92800.94;;;17.71;43.26
74336;BME280;62755;-33.398;-70.572;2023-09-30T08:37:13;92794.91;;;17.43;44.14
74336;BME280;62755;-33.398;-70.572;2023-09-30T08:39:45;92795.63;;;17.43;44.10
74336;BME280;62755;-33.398;-70.572;2023-09-30T08:42:14;92795.81;;;17.40;43.67
74336;BME280;62755;-33.398;-70.572;2023-09-30T08:44:45;92804.59;;;17.35;44.16
74336;BME280;62755;-33.398;-70.572;2023-09-30T08:47:16;92801.91;;;17.59;43.30
74336;BME280;62755;-33.398;-70.572;2023-09-30T08:49:49;92794.91;;;17.43;42.97
74336;BME280;62755;-33.398;-70.572;2023-09-30T08:52:23;92798.91;;;17.47;43.07
74336;BME280;62755;-33.398;-70.572;2023-09-30T08:54:55;92804.16;;;17.60;42.38
74336;BME280;62755;-33.398;-70.572;2023-09-30T08:57:25;92817.25;;;17.62;42.53
74336;BME280;62755;-33.398;-70.572;2023-09-30T08:59:55;92815.25;;;17.38;43.27
74336;BME280;62755;-33.398;-70.572;2023-09-30T09:02:24;92818.25;;;17.40;42.61
74336;BME280;62755;-33.398;-70.572;2023-09-30T09:04:54;92822.44;;;17.41;42.36
74336;BME280;62755;-33.398;-70.572;2023-09-30T09:07:24;92819.34;;;17.67;42.38
74336;BME280;62755;-33.398;-70.572;2023-09-30T09:10:08;92813.75;;;17.85;41.90
74336;BME280;62755;-33.398;-70.572;2023-09-30T09:12:40;92815.78;;;17.75;42.45
74336;BME280;62755;-33.398;-70.572;2023-09-30T09:15:21;92831.91;;;17.79;42.24
74336;BME280;62755;-33.398;-70.572;2023-09-30T09:17:50;92827.75;;;17.69;42.21
74336;BME280;62755;-33.398;-70.572;2023-09-30T09:20:22;92836.69;;;17.84;42.33
74336;BME280;62755;-33.398;-70.572;2023-09-30T09:22:53;92834.03;;;17.51;42.56
74336;BME280;62755;-33.398;-70.572;2023-09-30T09:25:26;92834.44;;;17.59;41.58
74336;BME280;62755;-33.398;-70.572;2023-09-30T09:27:56;92838.75;;;17.32;41.37
74336;BME280;62755;-33.398;-70.572;2023-09-30T09:30:26;92845.13;;;17.29;41.64
74336;BME280;62755;-33.398;-70.572;2023-09-30T09:32:59;92844.53;;;17.25;41.90
74336;BME280;62755;-33.398;-70.572;2023-09-30T09:35:32;92846.38;;;17.52;41.66
74336;BME280;62755;-33.398;-70.572;2023-09-30T09:38:03;92841.72;;;17.43;41.68
74336;BME280;62755;-33.398;-70.572;2023-09-30T09:40:35;92843.31;;;17.26;42.33
74336;BME280;62755;-33.398;-70.572;2023-09-30T09:43:05;92833.94;;;17.36;42.24
74336;BME280;62755;-33.398;-70.572;2023-09-30T09:45:35;92833.44;;;17.47;42.37
74336;BME280;62755;-33.398;-70.572;2023-09-30T09:48:06;92814.41;;;16.91;42.92
74336;BME280;62755;-33.398;-70.572;2023-09-30T09:50:35;92838.66;;;17.18;42.86
74336;BME280;62755;-33.398;-70.572;2023-09-30T09:53:05;92837.84;;;17.03;43.19
74336;BME280;62755;-33.398;-70.572;2023-09-30T09:55:36;92838.88;;;17.05;41.85
74336;BME280;62755;-33.398;-70.572;2023-09-30T09:58:08;92846.69;;;17.12;42.20
74336;BME280;62755;-33.398;-70.572;2023-09-30T10:00:39;92831.06;;;16.98;43.29
74336;BME280;62755;-33.398;-70.572;2023-09-30T10:03:10;92844.38;;;17.29;42.66
74336;BME280;62755;-33.398;-70.572;2023-09-30T10:05:39;92852.38;;;17.23;43.69
74336;BME280;62755;-33.398;-70.572;2023-09-30T10:08:12;92854.13;;;17.35;43.52
74336;BME280;62755;-33.398;-70.572;2023-09-30T10:10:46;92859.78;;;17.46;43.73
74336;BME280;62755;-33.398;-70.572;2023-09-30T10:16:47;92854.44;;;17.61;43.77
74336;BME280;62755;-33.398;-70.572;2023-09-30T10:19:19;92867.88;;;17.55;43.46
74336;BME280;62755;-33.398;-70.572;2023-09-30T10:22:22;92866.09;;;17.43;43.59
74336;BME280;62755;-33.398;-70.572;2023-09-30T10:24:53;92871.94;;;17.27;43.58
74336;BME280;62755;-33.398;-70.572;2023-09-30T10:27:35;92866.47;;;17.36;43.04
74336;BME280;62755;-33.398;-70.572;2023-09-30T10:30:08;92871.28;;;17.32;43.10
74336;BME280;62755;-33.398;-70.572;2023-09-30T10:33:13;92875.47;;;17.42;41.49
74336;BME280;62755;-33.398;-70.572;2023-09-30T10:35:47;92876.47;;;17.21;42.67
74336;BME280;62755;-33.398;-70.572;2023-09-30T10:38:40;92859.72;;;16.81;42.68
74336;BME280;62755;-33.398;-70.572;2023-09-30T10:41:10;92867.56;;;16.88;42.64
74336;BME280;62755;-33.398;-70.572;2023-09-30T10:43:42;92877.88;;;16.99;41.80
74336;BME280;62755;-33.398;-70.572;2023-09-30T10:46:32;92882.00;;;16.76;42.93
74336;BME280;62755;-33.398;-70.572;2023-09-30T10:49:30;92882.00;;;16.76;41.97
74336;BME280;62755;-33.398;-70.572;2023-09-30T10:52:01;92851.06;;;16.41;42.72
74336;BME280;62755;-33.398;-70.572;2023-09-30T10:54:32;92878.59;;;16.66;42.85
74336;BME280;62755;-33.398;-70.572;2023-09-30T10:57:01;92888.03;;;16.71;43.78
74336;BME280;62755;-33.398;-70.572;2023-09-30T10:59:33;92892.88;;;16.58;44.38
74336;BME280;62755;-33.398;-70.572;2023-09-30T11:02:02;92894.03;;;16.75;43.60
74336;BME280;62755;-33.398;-70.572;2023-09-30T11:04:46;92895.22;;;16.83;43.44
74336;BME280;62755;-33.398;-70.572;2023-09-30T11:07:21;92905.47;;;16.79;43.49
74336;BME280;62755;-33.398;-70.572;2023-09-30T11:09:54;92903.63;;;17.03;42.98
74336;BME280;62755;-33.398;-70.572;2023-09-30T11:12:24;92907.22;;;17.09;43.21
74336;BME280;62755;-33.398;-70.572;2023-09-30T11:15:02;92884.69;;;16.94;43.48
74336;BME280;62755;-33.398;-70.572;2023-09-30T11:17:32;92912.94;;;17.02;43.19
74336;BME280;62755;-33.398;-70.572;2023-09-30T11:20:02;92903.09;;;16.72;43.05
74336;BME280;62755;-33.398;-70.572;2023-09-30T11:22:33;92915.13;;;16.53;44.06
74336;BME280;62755;-33.398;-70.572;2023-09-30T11:25:03;92924.63;;;16.48;44.49
74336;BME280;62755;-33.398;-70.572;2023-09-30T11:27:32;92923.56;;;16.64;44.73
74336;BME280;62755;-33.398;-70.572;2023-09-30T11:30:05;92930.91;;;16.73;44.88
74336;BME280;62755;-33.398;-70.572;2023-09-30T11:32:36;92934.66;;;16.84;44.61
74336;BME280;62755;-33.398;-70.572;2023-09-30T11:35:10;92932.25;;;16.86;43.54
74336;BME280;62755;-33.398;-70.572;2023-09-30T11:37:41;92934.34;;;16.91;43.58
74336;BME280;62755;-33.398;-70.572;2023-09-30T11:40:13;92937.91;;;17.06;43.25
74336;BME280;62755;-33.398;-70.572;2023-09-30T11:43:09;92941.41;;;16.89;43.09
74336;BME280;62755;-33.398;-70.572;2023-09-30T11:45:41;92940.03;;;17.02;42.75
74336;BME280;62755;-33.398;-70.572;2023-09-30T11:48:19;92940.56;;;17.33;43.06
74336;BME280;62755;-33.398;-70.572;2023-09-30T11:50:49;92946.28;;;17.35;43.69
74336;BME280;62755;-33.398;-70.572;2023-09-30T11:53:20;92950.44;;;17.45;43.52
74336;BME280;62755;-33.398;-70.572;2023-09-30T11:55:49;92954.72;;;17.37;42.98
74336;BME280;62755;-33.398;-70.572;2023-09-30T11:58:21;92955.00;;;17.48;42.88
74336;BME280;62755;-33.398;-70.572;2023-09-30T12:00:55;92920.06;;;17.32;42.69
74336;BME280;62755;-33.398;-70.572;2023-09-30T12:03:24;92950.78;;;17.38;42.29
74336;BME280;62755;-33.398;-70.572;2023-09-30T12:05:54;92945.94;;;17.42;42.51
74336;BME280;62755;-33.398;-70.572;2023-09-30T12:08:24;92947.28;;;17.56;42.15
74336;BME280;62755;-33.398;-70.572;2023-09-30T12:10:53;92953.97;;;17.28;42.41
74336;BME280;62755;-33.398;-70.572;2023-09-30T12:13:22;92948.66;;;17.51;42.29
74336;BME280;62755;-33.398;-70.572;2023-09-30T12:15:54;92944.44;;;17.41;42.17
74336;BME280;62755;-33.398;-70.572;2023-09-30T12:18:24;92953.75;;;17.59;41.95
74336;BME280;62755;-33.398;-70.572;2023-09-30T12:20:53;92961.25;;;17.64;42.04
74336;BME280;62755;-33.398;-70.572;2023-09-30T12:23:23;92958.34;;;17.76;41.72
74336;BME280;62755;-33.398;-70.572;2023-09-30T12:25:53;92953.56;;;17.95;40.91
74336;BME280;62755;-33.398;-70.572;2023-09-30T12:28:22;92961.63;;;18.13;41.05
74336;BME280;62755;-33.398;-70.572;2023-09-30T12:30:55;92965.13;;;18.28;40.56
74336;BME280;62755;-33.398;-70.572;2023-09-30T12:33:25;92957.84;;;18.34;39.45
74336;BME280;62755;-33.398;-70.572;2023-09-30T12:35:55;92963.94;;;18.29;39.43
74336;BME280;62755;-33.398;-70.572;2023-09-30T12:38:24;92968.38;;;18.41;39.76
74336;BME280;62755;-33.398;-70.572;2023-09-30T12:40:55;92918.88;;;18.22;39.82
74336;BME280;62755;-33.398;-70.572;2023-09-30T12:43:25;92972.78;;;18.62;39.26
74336;BME280;62755;-33.398;-70.572;2023-09-30T12:45:56;92975.53;;;18.77;39.18
74336;BME280;62755;-33.398;-70.572;2023-09-30T12:48:26;92971.53;;;18.87;39.91
74336;BME280;62755;-33.398;-70.572;2023-09-30T12:50:55;92975.38;;;18.95;39.40
74336;BME280;62755;-33.398;-70.572;2023-09-30T12:53:25;92975.50;;;19.00;40.43